Weather at El Alto International Airport

Public forecast

Using degrees Celsius for public forecast. Weather courtesy of forecast.io.

Current aviation weather report (METAR) for El Alto International Airport

Report is more than 6 hours old.

2022/11/14 15:00 (retrieved 2 years ago)

SLLP 141500Z 13013KT 9999 FEW017 SCT200 15/M07 Q1037

Aviation forecast (TAF) for El Alto International Airport

Forecast is more than 12 hours old.

2023/02/22 18:12 (retrieved 1 year ago)

TAF TAF SLLP 221600Z 2218/2318 24010KT 9999 SCT015 FEW017CB SCT070 TX13/2219Z TN04/2310Z TEMPO 2218/2222 SHRA BECMG 2223/2301 07008KT SCT013 TEMPO 2306/2311 BCFG BECMG 2312/2314 14010KT